createdAt,value
2018-04-02T00:01:47.561Z,29.70
2018-04-02T00:04:14.574Z,29.80
2018-04-02T00:06:41.608Z,29.70
2018-04-02T00:09:08.621Z,29.70
2018-04-02T00:11:35.635Z,29.70
2018-04-02T00:14:02.638Z,29.70
2018-04-02T00:16:29.634Z,29.70
2018-04-02T00:18:56.638Z,29.70
2018-04-02T00:21:23.885Z,29.70
2018-04-02T00:23:50.884Z,29.70
2018-04-02T00:26:17.870Z,29.70
2018-04-02T00:28:45.226Z,29.70
2018-04-02T00:31:12.229Z,29.70
2018-04-02T00:33:39.380Z,29.70
2018-04-02T00:36:06.391Z,29.70
2018-04-02T00:38:33.385Z,29.70
2018-04-02T00:41:00.383Z,29.70
2018-04-02T00:43:27.582Z,29.70
2018-04-02T00:45:55.351Z,29.70
2018-04-02T00:48:22.328Z,29.70
2018-04-02T00:50:49.378Z,29.70
2018-04-02T00:53:16.595Z,29.60
2018-04-02T00:55:43.586Z,29.60
2018-04-02T00:58:10.584Z,29.60
2018-04-02T01:00:37.578Z,29.70
2018-04-02T01:03:04.796Z,29.60
2018-04-02T01:05:31.790Z,29.60
2018-04-02T01:07:58.783Z,29.60
2018-04-02T01:10:25.771Z,29.60
2018-04-02T01:12:52.974Z,29.60
2018-04-02T01:15:19.967Z,29.60
2018-04-02T01:17:46.964Z,29.60
2018-04-02T01:20:13.956Z,29.60
2018-04-02T01:22:41.161Z,29.60
2018-04-02T01:25:08.174Z,29.60
2018-04-02T01:27:35.181Z,29.60
2018-04-02T01:30:02.169Z,29.50
2018-04-02T01:32:29.969Z,29.60
2018-04-02T01:34:56.984Z,29.50
2018-04-02T01:37:24.001Z,29.50
2018-04-02T01:39:51.007Z,29.60
2018-04-02T01:42:18.163Z,29.60
2018-04-02T01:44:45.164Z,29.60
2018-04-02T01:47:13.060Z,29.50
2018-04-02T01:49:40.062Z,29.50
2018-04-02T01:52:08.194Z,29.50
2018-04-02T01:54:35.178Z,29.50
2018-04-02T01:57:02.180Z,29.50
2018-04-02T01:59:29.170Z,29.50
2018-04-02T02:01:56.196Z,29.50
2018-04-02T02:04:23.184Z,29.50
2018-04-02T02:06:50.193Z,29.50
2018-04-02T02:09:17.183Z,29.50
2018-04-02T02:11:44.981Z,29.50
2018-04-02T02:14:11.977Z,29.40
2018-04-02T02:16:38.974Z,29.40
2018-04-02T02:19:05.976Z,29.50
2018-04-02T02:21:32.984Z,29.50
2018-04-02T02:24:00.059Z,29.40
2018-04-02T02:26:27.043Z,29.40
2018-04-02T02:28:54.033Z,29.40
2018-04-02T02:31:21.034Z,29.40
2018-04-02T02:33:48.024Z,29.40
2018-04-02T02:36:15.035Z,29.40
2018-04-02T02:38:42.036Z,29.40
2018-04-02T02:41:09.049Z,29.40
2018-04-02T02:43:36.185Z,29.40
2018-04-02T02:46:03.180Z,29.40
2018-04-02T02:48:30.186Z,29.40
2018-04-02T02:50:57.180Z,29.40
2018-04-02T02:53:24.399Z,29.40
2018-04-02T02:55:51.394Z,29.10
2018-04-02T02:58:18.392Z,29.40
2018-04-02T03:00:45.399Z,29.40
2018-04-02T03:03:13.198Z,29.40
2018-04-02T03:05:40.199Z,29.40
2018-04-02T03:08:07.206Z,29.40
2018-04-02T03:10:34.201Z,29.40
2018-04-02T03:13:01.993Z,29.40
2018-04-02T03:15:28.990Z,29.30
2018-04-02T03:17:57.729Z,29.30
2018-04-02T03:20:24.716Z,29.40
2018-04-02T03:22:53.252Z,29.30
2018-04-02T03:25:20.262Z,29.30
2018-04-02T03:27:47.285Z,29.30
2018-04-02T03:30:14.283Z,29.30
2018-04-02T03:32:41.446Z,29.20
2018-04-02T03:35:08.449Z,29.30
2018-04-02T03:37:35.487Z,29.20
2018-04-02T03:40:02.481Z,29.20
2018-04-02T03:42:29.628Z,29.20
2018-04-02T03:44:56.634Z,29.20
2018-04-02T03:47:25.130Z,29.30
2018-04-02T03:49:52.130Z,29.20
2018-04-02T03:52:19.274Z,29.20
2018-04-02T03:54:46.261Z,29.20
2018-04-02T03:57:13.271Z,29.20
2018-04-02T03:59:40.287Z,29.20
2018-04-02T04:02:07.447Z,29.20
2018-04-02T04:04:34.449Z,29.20
2018-04-02T04:07:01.441Z,29.20
2018-04-02T04:09:28.443Z,29.10
2018-04-02T04:11:55.636Z,29.20
2018-04-02T04:14:22.644Z,29.70
2018-04-02T04:16:49.657Z,29.10
2018-04-02T04:19:16.653Z,29.10
2018-04-02T04:21:44.471Z,29.10
2018-04-02T04:24:11.461Z,29.10
2018-04-02T04:26:38.457Z,29.10
2018-04-02T04:29:05.471Z,29.10
2018-04-02T04:31:33.222Z,29.10
2018-04-02T04:34:00.220Z,29.10
2018-04-02T04:36:27.227Z,29.60
2018-04-02T04:38:54.988Z,29.10
2018-04-02T04:41:21.989Z,29.10
2018-04-02T04:43:48.987Z,29.10
2018-04-02T04:46:15.975Z,29.00
2018-04-02T04:48:43.004Z,29.00
2018-04-02T04:51:09.998Z,29.00
2018-04-02T04:53:37.089Z,29.00
2018-04-02T04:56:04.088Z,29.00
2018-04-02T04:58:31.859Z,29.00
2018-04-02T05:00:58.861Z,29.00
2018-04-02T05:03:25.893Z,29.00
2018-04-02T05:05:52.901Z,29.00
2018-04-02T05:08:20.668Z,29.00
2018-04-02T05:10:47.673Z,29.00
2018-04-02T05:13:14.749Z,29.00
2018-04-02T05:15:41.739Z,28.90
2018-04-02T05:18:08.746Z,28.90
2018-04-02T05:20:35.753Z,28.90
2018-04-02T05:23:02.888Z,28.90
2018-04-02T05:25:29.886Z,28.90
2018-04-02T05:27:56.869Z,28.90
2018-04-02T05:30:23.878Z,28.90
2018-04-02T05:32:51.082Z,28.90
2018-04-02T05:35:18.082Z,28.90
2018-04-02T05:37:45.062Z,28.90
2018-04-02T05:40:12.075Z,28.90
2018-04-02T05:42:39.282Z,28.80
2018-04-02T05:45:06.276Z,28.80
2018-04-02T05:47:34.783Z,28.90
2018-04-02T05:50:01.782Z,28.90
2018-04-02T05:52:28.897Z,28.80
2018-04-02T05:54:55.958Z,28.90
2018-04-02T05:57:22.948Z,28.90
2018-04-02T05:59:49.942Z,28.80
2018-04-02T06:02:17.612Z,28.80
2018-04-02T06:04:44.638Z,28.70
2018-04-02T06:07:11.642Z,28.70
2018-04-02T06:09:38.649Z,28.60
2018-04-02T06:12:05.783Z,28.60
2018-04-02T06:14:32.809Z,28.60
2018-04-02T06:17:00.597Z,28.60
2018-04-02T06:19:27.585Z,28.60
2018-04-02T06:21:54.710Z,28.60
2018-04-02T06:24:21.701Z,28.60
2018-04-02T06:26:48.697Z,28.60
2018-04-02T06:29:15.707Z,28.60
2018-04-02T06:31:43.506Z,28.60
2018-04-02T06:34:10.730Z,28.60
2018-04-02T06:36:37.749Z,28.60
2018-04-02T06:39:05.358Z,28.60
2018-04-02T06:41:32.366Z,28.60
2018-04-02T06:43:59.372Z,28.70
2018-04-02T06:46:26.368Z,28.70
2018-04-02T06:48:53.380Z,28.60
2018-04-02T06:51:20.369Z,28.70
2018-04-02T06:53:48.129Z,28.70
2018-04-02T06:56:15.119Z,28.70
2018-04-02T06:58:42.126Z,28.80
2018-04-02T07:01:09.890Z,28.70
2018-04-02T07:03:37.155Z,28.70
2018-04-02T07:06:04.165Z,28.70
2018-04-02T07:08:32.669Z,28.80
2018-04-02T07:10:59.699Z,28.80
2018-04-02T07:13:28.230Z,28.90
2018-04-02T07:15:55.254Z,28.90
2018-04-02T07:18:22.256Z,28.90
2018-04-02T07:20:49.268Z,28.90
2018-04-02T07:23:16.426Z,28.90
2018-04-02T07:25:43.420Z,28.80
2018-04-02T07:28:10.415Z,28.90
2018-04-02T07:30:37.418Z,28.30
2018-04-02T07:33:04.612Z,28.60
2018-04-02T07:35:31.679Z,28.70
2018-04-02T07:37:58.674Z,28.90
2018-04-02T07:40:25.677Z,28.80
2018-04-02T07:42:52.799Z,28.80
2018-04-02T07:45:19.827Z,28.90
2018-04-02T07:47:46.840Z,26.30
2018-04-02T07:50:15.343Z,25.70
2018-04-02T07:52:43.247Z,25.90
2018-04-02T07:55:10.269Z,25.90
2018-04-02T07:57:37.272Z,25.50
2018-04-02T08:00:04.285Z,25.50
2018-04-02T08:02:31.450Z,25.00
2018-04-02T08:04:58.447Z,24.70
2018-04-02T08:07:25.438Z,24.80
2018-04-02T08:09:52.435Z,25.20
2018-04-02T08:12:20.235Z,25.10
2018-04-02T08:14:47.237Z,25.00
2018-04-02T08:17:14.597Z,25.10
2018-04-02T08:19:41.652Z,24.80
2018-04-02T08:22:08.841Z,26.20
2018-04-02T08:24:35.857Z,26.30
2018-04-02T08:27:02.841Z,26.30
2018-04-02T08:29:29.831Z,26.30
2018-04-02T08:31:57.027Z,26.80
2018-04-02T08:34:24.037Z,26.80
2018-04-02T08:36:51.069Z,27.00
2018-04-02T08:39:18.069Z,27.10
2018-04-02T08:41:45.214Z,27.30
2018-04-02T08:44:12.214Z,27.40
2018-04-02T08:46:39.235Z,27.50
2018-04-02T08:49:06.241Z,27.60
2018-04-02T08:51:33.996Z,27.70
2018-04-02T08:54:01.004Z,27.60
2018-04-02T08:56:27.988Z,27.70
2018-04-02T08:58:55.749Z,27.80
2018-04-02T09:01:22.753Z,27.80
2018-04-02T09:03:49.753Z,27.80
2018-04-02T09:06:17.513Z,27.90
2018-04-02T09:08:45.281Z,28.00
2018-04-02T09:11:13.055Z,28.10
2018-04-02T09:13:40.131Z,28.10
2018-04-02T09:16:07.129Z,28.10
2018-04-02T09:18:34.121Z,28.10
2018-04-02T09:21:01.116Z,28.30
2018-04-02T09:23:28.927Z,24.50
2018-04-02T09:25:55.913Z,24.50
2018-04-02T09:28:22.905Z,24.00
2018-04-02T09:30:49.898Z,24.20
2018-04-02T09:33:16.905Z,24.40
2018-04-02T09:35:43.913Z,24.50
2018-04-02T09:38:10.907Z,24.60
2018-04-02T09:40:37.921Z,24.40
2018-04-02T09:43:05.903Z,24.10
2018-04-02T09:45:32.895Z,24.10
2018-04-02T09:47:59.905Z,24.10
2018-04-02T09:50:26.949Z,23.80
2018-04-02T09:52:54.116Z,24.10
2018-04-02T09:55:21.133Z,24.50
2018-04-02T09:57:48.123Z,24.50
2018-04-02T10:00:15.190Z,23.40
2018-04-02T10:02:42.290Z,24.20
2018-04-02T10:05:09.352Z,24.30
2018-04-02T10:07:36.323Z,24.90
2018-04-02T10:10:03.383Z,24.70
2018-04-02T10:12:30.502Z,24.60
2018-04-02T10:14:57.489Z,24.30
2018-04-02T10:17:24.886Z,23.60
2018-04-02T10:19:51.926Z,24.30
2018-04-02T10:22:19.096Z,25.30
2018-04-02T10:24:46.124Z,25.40
2018-04-02T10:27:14.245Z,25.50
2018-04-02T10:29:41.282Z,25.90
2018-04-02T10:32:08.380Z,25.70
2018-04-02T10:34:35.333Z,25.50
2018-04-02T10:37:02.388Z,25.50
2018-04-02T10:39:29.384Z,25.60
2018-04-02T10:41:56.505Z,25.40
2018-04-02T10:44:23.517Z,25.80
2018-04-02T10:46:50.518Z,25.70
2018-04-02T10:49:17.533Z,25.90
2018-04-02T10:51:44.686Z,26.40
2018-04-02T10:54:11.700Z,26.30
2018-04-02T10:56:38.696Z,26.70
2018-04-02T10:59:05.692Z,26.80
2018-04-02T11:01:33.477Z,27.30
2018-04-02T11:04:00.487Z,26.80
2018-04-02T11:06:27.486Z,26.80
2018-04-02T11:08:54.474Z,26.70
2018-04-02T11:11:21.490Z,26.70
2018-04-02T11:13:48.488Z,26.70
2018-04-02T11:16:15.557Z,23.50
2018-04-02T11:18:42.608Z,23.70
2018-04-02T11:21:09.641Z,24.10
2018-04-02T11:23:36.749Z,23.20
2018-04-02T11:26:03.736Z,23.60
2018-04-02T11:28:30.733Z,23.40
2018-04-02T11:30:57.737Z,22.90
2018-04-02T11:33:25.524Z,23.10
2018-04-02T11:35:52.531Z,23.10
2018-04-02T11:38:19.558Z,22.30
2018-04-02T11:40:46.564Z,23.20
2018-04-02T11:43:13.735Z,23.80
2018-04-02T11:45:40.734Z,23.90
2018-04-02T11:48:07.741Z,23.40
2018-04-02T11:50:34.773Z,23.10
2018-04-02T11:53:01.912Z,23.00
2018-04-02T11:55:28.921Z,24.10
2018-04-02T11:57:55.930Z,24.10
2018-04-02T12:00:22.946Z,24.40
2018-04-02T12:02:50.149Z,24.40
2018-04-02T12:05:17.145Z,24.50
2018-04-02T12:07:44.149Z,24.60
2018-04-02T12:10:11.166Z,24.80
2018-04-02T12:12:38.292Z,24.90
2018-04-02T12:15:05.286Z,25.00
2018-04-02T12:17:32.309Z,25.10
2018-04-02T12:19:59.299Z,25.30
2018-04-02T12:22:27.089Z,25.40
2018-04-02T12:24:54.085Z,25.40
2018-04-02T12:27:21.101Z,25.40
2018-04-02T12:29:48.107Z,25.50
2018-04-02T12:32:16.067Z,25.60
2018-04-02T12:34:43.076Z,25.50
2018-04-02T12:37:10.060Z,25.50
2018-04-02T12:39:37.857Z,25.60
2018-04-02T12:42:04.902Z,25.60
2018-04-02T12:44:31.898Z,25.80
2018-04-02T12:46:58.901Z,25.80
2018-04-02T12:49:25.908Z,25.90
2018-04-02T12:51:53.708Z,25.90
2018-04-02T12:54:20.709Z,25.90
2018-04-02T12:56:47.713Z,25.90
2018-04-02T12:59:14.714Z,26.00
2018-04-02T13:01:42.512Z,26.20
2018-04-02T13:04:09.509Z,26.10
2018-04-02T13:06:36.508Z,26.10
2018-04-02T13:09:03.517Z,26.10
2018-04-02T13:11:31.279Z,26.20
2018-04-02T13:13:58.279Z,26.20
2018-04-02T13:16:25.276Z,26.20
2018-04-02T13:18:53.041Z,26.20
2018-04-02T13:21:20.034Z,26.20
2018-04-02T13:23:47.045Z,26.20
2018-04-02T13:26:14.810Z,26.30
2018-04-02T13:28:41.823Z,26.30
2018-04-02T13:31:08.845Z,26.30
2018-04-02T13:33:35.992Z,26.60
2018-04-02T13:36:02.982Z,26.60
2018-04-02T13:38:29.964Z,26.50
2018-04-02T13:40:56.993Z,26.50
2018-04-02T13:43:24.788Z,26.80
2018-04-02T13:45:51.774Z,26.70
2018-04-02T13:48:18.786Z,26.70
2018-04-02T13:50:45.782Z,26.60
2018-04-02T13:53:12.970Z,26.80
2018-04-02T13:55:39.969Z,26.80
2018-04-02T13:58:06.962Z,26.90
2018-04-02T14:00:33.949Z,26.80
2018-04-02T14:03:00.966Z,26.90
2018-04-02T14:05:27.964Z,27.40
2018-04-02T14:07:54.961Z,26.90
2018-04-02T14:10:21.956Z,26.90
2018-04-02T14:12:49.768Z,27.50
2018-04-02T14:15:16.755Z,27.00
2018-04-02T14:17:43.772Z,27.00
2018-04-02T14:20:10.786Z,27.00
2018-04-02T14:22:38.582Z,27.00
2018-04-02T14:25:05.578Z,27.00
2018-04-02T14:27:32.581Z,27.00
2018-04-02T14:29:59.617Z,27.00
2018-04-02T14:32:27.373Z,27.10
2018-04-02T14:34:54.529Z,27.20
2018-04-02T14:37:21.522Z,27.20
2018-04-02T14:39:48.514Z,27.30
2018-04-02T14:42:15.574Z,27.30
2018-04-02T14:44:42.576Z,27.30
2018-04-02T14:47:09.579Z,27.30
2018-04-02T14:49:36.573Z,27.30
2018-04-02T14:52:04.372Z,27.40
2018-04-02T14:54:31.382Z,27.40
2018-04-02T14:56:58.359Z,27.40
2018-04-02T14:59:25.400Z,27.40
2018-04-02T15:01:52.558Z,27.30
2018-04-02T15:04:19.619Z,27.30
2018-04-02T15:06:46.684Z,27.40
2018-04-02T15:09:13.696Z,27.40
2018-04-02T15:11:40.753Z,27.40
2018-04-02T15:14:07.753Z,27.40
2018-04-02T15:16:35.528Z,27.40
2018-04-02T15:19:03.274Z,27.40
2018-04-02T15:21:30.258Z,27.40
2018-04-02T15:23:57.250Z,27.40
2018-04-02T15:26:24.250Z,27.40
2018-04-02T15:28:51.245Z,27.40
2018-04-02T15:31:18.261Z,27.40
2018-04-02T15:33:45.259Z,27.40
2018-04-02T15:36:12.247Z,27.50
2018-04-02T15:38:39.246Z,27.50
2018-04-02T15:41:06.245Z,27.50
2018-04-02T15:43:33.448Z,27.50
2018-04-02T15:46:00.405Z,27.50
2018-04-02T15:48:27.386Z,27.50
2018-04-02T15:50:54.434Z,27.50
2018-04-02T15:53:22.199Z,27.60
2018-04-02T15:55:49.202Z,27.60
2018-04-02T15:58:16.198Z,27.60
2018-04-02T16:00:43.186Z,27.50
2018-04-02T16:03:10.206Z,27.50
2018-04-02T16:05:37.212Z,27.50
2018-04-02T16:08:04.245Z,27.50
2018-04-02T16:10:31.245Z,27.60
2018-04-02T16:12:58.394Z,27.50
2018-04-02T16:15:25.383Z,27.60
2018-04-02T16:17:52.375Z,27.60
2018-04-02T16:20:19.372Z,27.60
2018-04-02T16:22:46.560Z,27.60
2018-04-02T16:25:13.638Z,27.60
2018-04-02T16:27:40.692Z,27.60
2018-04-02T16:30:07.677Z,27.60
2018-04-02T16:32:34.761Z,27.50
2018-04-02T16:35:01.766Z,27.50
2018-04-02T16:37:28.764Z,27.50
2018-04-02T16:39:55.770Z,27.50
2018-04-02T16:42:23.563Z,27.50
2018-04-02T16:44:50.591Z,27.50
2018-04-02T16:47:18.506Z,27.50
2018-04-02T16:49:45.625Z,27.50
2018-04-02T16:52:12.769Z,27.50
2018-04-02T16:54:39.769Z,27.50
2018-04-02T16:57:06.803Z,27.50
2018-04-02T16:59:33.800Z,27.50
2018-04-02T17:02:00.977Z,27.40
2018-04-02T17:04:27.971Z,27.50
2018-04-02T17:06:54.972Z,27.40
2018-04-02T17:09:22.013Z,27.50
2018-04-02T17:11:49.162Z,27.50
2018-04-02T17:14:16.158Z,27.50
2018-04-02T17:16:44.658Z,27.50
2018-04-02T17:19:11.666Z,27.50
2018-04-02T17:21:38.791Z,27.50
2018-04-02T17:24:05.817Z,27.50
2018-04-02T17:26:32.833Z,27.50
2018-04-02T17:29:01.336Z,27.50
2018-04-02T17:31:28.354Z,27.50
2018-04-02T17:33:55.357Z,27.80
2018-04-02T17:36:22.373Z,27.80
2018-04-02T17:38:50.159Z,27.80
2018-04-02T17:41:17.163Z,27.80
2018-04-02T17:43:44.171Z,27.70
2018-04-02T17:46:12.478Z,27.80
2018-04-02T17:48:39.500Z,27.90
2018-04-02T17:51:07.248Z,27.90
2018-04-02T17:53:34.413Z,27.90
2018-04-02T17:56:01.589Z,28.00
2018-04-02T17:58:28.538Z,27.90
2018-04-02T18:00:55.530Z,27.90
2018-04-02T18:03:22.733Z,28.00
2018-04-02T18:05:49.733Z,28.10
2018-04-02T18:08:16.735Z,28.20
2018-04-02T18:10:43.741Z,28.20
2018-04-02T18:13:11.940Z,28.30
2018-04-02T18:15:39.488Z,28.30
2018-04-02T18:18:06.496Z,28.30
2018-04-02T18:20:34.325Z,28.40
2018-04-02T18:23:01.584Z,28.40
2018-04-02T18:25:29.624Z,28.50
2018-04-02T18:27:56.657Z,28.50
2018-04-02T18:30:23.711Z,28.50
2018-04-02T18:32:50.773Z,28.50
2018-04-02T18:35:17.774Z,28.50
2018-04-02T18:37:44.774Z,28.60
2018-04-02T18:40:13.992Z,28.60
2018-04-02T18:42:41.207Z,28.50
2018-04-02T18:45:08.226Z,28.60
2018-04-02T18:47:35.281Z,28.50
2018-04-02T18:50:02.300Z,28.40
2018-04-02T18:52:29.383Z,28.40
2018-04-02T18:54:56.623Z,28.40
2018-04-02T18:57:23.715Z,28.40
2018-04-02T18:59:50.940Z,28.40
2018-04-02T19:02:17.984Z,28.40
2018-04-02T19:04:45.213Z,28.40
2018-04-02T19:07:12.471Z,28.40
2018-04-02T19:09:39.645Z,28.30
2018-04-02T19:12:06.988Z,28.50
2018-04-02T19:14:34.226Z,28.60
2018-04-02T19:17:01.280Z,28.50
2018-04-02T19:19:28.630Z,28.40
2018-04-02T19:21:56.707Z,28.50
2018-04-02T19:24:23.789Z,28.50
2018-04-02T19:26:50.977Z,28.50
2018-04-02T19:29:18.304Z,28.50
2018-04-02T19:31:46.077Z,28.40
2018-04-02T19:34:13.605Z,28.30
2018-04-02T19:36:41.156Z,28.30
2018-04-02T19:39:08.252Z,28.40
2018-04-02T19:41:35.385Z,28.40
2018-04-02T19:44:02.471Z,28.30
2018-04-02T19:46:29.631Z,28.40
2018-04-02T19:48:57.653Z,28.40
2018-04-02T19:51:25.540Z,28.30
2018-04-02T19:53:52.598Z,28.80
2018-04-02T19:56:19.862Z,28.40
2018-04-02T19:58:47.660Z,28.50
2018-04-02T20:01:14.786Z,28.50
2018-04-02T20:03:42.777Z,28.50
2018-04-02T20:06:10.523Z,28.50
2018-04-02T20:08:37.794Z,28.50
2018-04-02T20:11:04.876Z,28.40
2018-04-02T20:13:32.215Z,28.50
2018-04-02T20:16:00.912Z,28.60
2018-04-02T20:18:28.319Z,28.40
2018-04-02T20:20:55.500Z,28.40
2018-04-02T20:23:23.253Z,28.30
2018-04-02T20:25:51.080Z,28.40
2018-04-02T20:28:18.080Z,28.30
2018-04-02T20:30:45.077Z,28.50
2018-04-02T20:33:12.884Z,28.40
2018-04-02T20:35:39.888Z,28.30
2018-04-02T20:38:06.905Z,28.40
2018-04-02T20:40:33.990Z,28.30
2018-04-02T20:43:01.114Z,28.40
2018-04-02T20:45:28.141Z,28.30
2018-04-02T20:47:55.354Z,28.30
2018-04-02T20:50:22.746Z,28.80
2018-04-02T20:52:49.909Z,28.40
2018-04-02T20:55:17.013Z,28.40
2018-04-02T20:57:44.015Z,28.40
2018-04-02T21:00:11.002Z,28.50
2018-04-02T21:02:38.070Z,28.40
2018-04-02T21:05:05.138Z,28.50
2018-04-02T21:07:32.132Z,28.60
2018-04-02T21:09:59.268Z,28.60
2018-04-02T21:12:26.458Z,28.60
2018-04-02T21:14:53.462Z,28.80
2018-04-02T21:17:21.077Z,28.80
2018-04-02T21:19:48.113Z,28.80
2018-04-02T21:22:15.272Z,28.90
2018-04-02T21:24:42.278Z,28.90
2018-04-02T21:27:09.263Z,28.90
2018-04-02T21:29:36.249Z,28.90
2018-04-02T21:32:03.514Z,29.00
2018-04-02T21:34:31.275Z,29.00
2018-04-02T21:36:58.987Z,28.90
2018-04-02T21:39:25.976Z,28.90
2018-04-02T21:41:53.554Z,28.90
2018-04-02T21:44:21.324Z,28.70
2018-04-02T21:46:48.355Z,28.70
2018-04-02T21:49:15.422Z,28.70
2018-04-02T21:51:42.654Z,28.70
2018-04-02T21:54:11.168Z,28.70
2018-04-02T21:56:38.195Z,28.70
2018-04-02T21:59:05.216Z,28.70
2018-04-02T22:01:32.221Z,28.70
2018-04-02T22:03:59.261Z,28.70
2018-04-02T22:06:26.342Z,28.70
2018-04-02T22:08:53.341Z,28.70
2018-04-02T22:11:21.154Z,28.70
2018-04-02T22:13:48.148Z,28.70
2018-04-02T22:16:15.383Z,28.70
2018-04-02T22:18:42.405Z,28.70
2018-04-02T22:21:09.398Z,28.70
2018-04-02T22:23:37.814Z,28.70
2018-04-02T22:26:05.774Z,28.70
2018-04-02T22:28:32.816Z,28.70
2018-04-02T22:30:59.830Z,28.70
2018-04-02T22:33:27.639Z,28.70
2018-04-02T22:35:54.687Z,28.60
2018-04-02T22:38:21.697Z,28.60
2018-04-02T22:40:48.697Z,28.60
2018-04-02T22:43:15.837Z,28.60
2018-04-02T22:45:42.838Z,28.60
2018-04-02T22:48:09.855Z,28.60
2018-04-02T22:50:36.846Z,28.60
2018-04-02T22:53:04.030Z,28.60
2018-04-02T22:55:31.030Z,28.70
2018-04-02T22:57:58.049Z,28.60
2018-04-02T23:00:25.162Z,28.60
2018-04-02T23:02:52.216Z,28.70
2018-04-02T23:05:19.217Z,28.70
2018-04-02T23:07:46.214Z,28.60
2018-04-02T23:10:13.210Z,28.70
2018-04-02T23:12:41.007Z,28.70
2018-04-02T23:15:08.010Z,28.70
2018-04-02T23:17:35.024Z,28.70
2018-04-02T23:20:02.035Z,28.70
2018-04-02T23:22:29.220Z,28.70
2018-04-02T23:24:56.231Z,28.70
2018-04-02T23:27:23.246Z,28.80
2018-04-02T23:29:50.252Z,28.70
2018-04-02T23:32:17.405Z,28.80
2018-04-02T23:34:44.420Z,28.70
2018-04-02T23:37:11.405Z,28.80
2018-04-02T23:39:38.404Z,28.70
2018-04-02T23:42:06.198Z,28.80
2018-04-02T23:44:33.186Z,28.80
2018-04-02T23:47:00.196Z,28.70
2018-04-02T23:49:27.193Z,28.70
2018-04-02T23:51:55.005Z,28.80
2018-04-02T23:54:21.983Z,28.70
2018-04-02T23:56:48.993Z,28.80
2018-04-02T23:59:15.978Z,28.80
